sensor_id;sensor_type;location;lat;lon;timestamp;P1;durP1;ratioP1;P2;durP2;ratioP2
54929;SDS011;40833;53.238;6.576;2024-03-07T00:00:46;22.70;;;15.53;;
54929;SDS011;40833;53.238;6.576;2024-03-07T00:03:12;24.63;;;15.67;;
54929;SDS011;40833;53.238;6.576;2024-03-07T00:05:38;25.83;;;16.33;;
54929;SDS011;40833;53.238;6.576;2024-03-07T00:08:04;23.83;;;15.47;;
54929;SDS011;40833;53.238;6.576;2024-03-07T00:10:31;20.80;;;15.60;;
54929;SDS011;40833;53.238;6.576;2024-03-07T00:12:57;21.53;;;16.03;;
54929;SDS011;40833;53.238;6.576;2024-03-07T00:15:22;22.83;;;15.57;;
54929;SDS011;40833;53.238;6.576;2024-03-07T00:17:48;25.57;;;15.07;;
54929;SDS011;40833;53.238;6.576;2024-03-07T00:20:14;22.03;;;15.63;;
54929;SDS011;40833;53.238;6.576;2024-03-07T00:22:40;26.83;;;16.43;;
54929;SDS011;40833;53.238;6.576;2024-03-07T00:25:06;24.10;;;16.47;;
54929;SDS011;40833;53.238;6.576;2024-03-07T00:27:34;22.30;;;15.70;;
54929;SDS011;40833;53.238;6.576;2024-03-07T00:30:06;24.77;;;16.08;;
54929;SDS011;40833;53.238;6.576;2024-03-07T00:32:33;22.50;;;15.80;;
54929;SDS011;40833;53.238;6.576;2024-03-07T00:35:01;23.07;;;16.70;;
54929;SDS011;40833;53.238;6.576;2024-03-07T00:37:30;24.53;;;17.00;;
54929;SDS011;40833;53.238;6.576;2024-03-07T00:39:56;21.30;;;15.83;;
54929;SDS011;40833;53.238;6.576;2024-03-07T00:42:22;20.97;;;15.57;;
54929;SDS011;40833;53.238;6.576;2024-03-07T00:44:48;22.70;;;15.27;;
54929;SDS011;40833;53.238;6.576;2024-03-07T00:47:17;22.80;;;15.57;;
54929;SDS011;40833;53.238;6.576;2024-03-07T00:49:45;21.83;;;15.57;;
54929;SDS011;40833;53.238;6.576;2024-03-07T00:52:14;23.73;;;16.07;;
54929;SDS011;40833;53.238;6.576;2024-03-07T00:54:40;22.73;;;16.00;;
54929;SDS011;40833;53.238;6.576;2024-03-07T00:57:06;21.83;;;15.83;;
54929;SDS011;40833;53.238;6.576;2024-03-07T00:59:33;23.70;;;16.63;;
54929;SDS011;40833;53.238;6.576;2024-03-07T01:01:58;25.33;;;16.13;;
54929;SDS011;40833;53.238;6.576;2024-03-07T01:04:25;22.07;;;15.13;;
54929;SDS011;40833;53.238;6.576;2024-03-07T01:06:56;20.90;;;15.73;;
54929;SDS011;40833;53.238;6.576;2024-03-07T01:09:23;20.20;;;15.53;;
54929;SDS011;40833;53.238;6.576;2024-03-07T01:11:49;23.40;;;15.20;;
54929;SDS011;40833;53.238;6.576;2024-03-07T01:14:15;21.77;;;15.33;;
54929;SDS011;40833;53.238;6.576;2024-03-07T01:16:41;23.67;;;15.67;;
54929;SDS011;40833;53.238;6.576;2024-03-07T01:19:07;23.73;;;15.70;;
54929;SDS011;40833;53.238;6.576;2024-03-07T01:21:33;22.83;;;15.43;;
54929;SDS011;40833;53.238;6.576;2024-03-07T01:24:00;22.53;;;15.33;;
54929;SDS011;40833;53.238;6.576;2024-03-07T01:26:29;20.67;;;16.20;;
54929;SDS011;40833;53.238;6.576;2024-03-07T01:28:56;22.60;;;14.83;;
54929;SDS011;40833;53.238;6.576;2024-03-07T01:31:23;20.83;;;16.00;;
54929;SDS011;40833;53.238;6.576;2024-03-07T01:33:49;22.03;;;16.13;;
54929;SDS011;40833;53.238;6.576;2024-03-07T01:36:15;24.47;;;16.67;;
54929;SDS011;40833;53.238;6.576;2024-03-07T01:38:41;22.67;;;15.33;;
54929;SDS011;40833;53.238;6.576;2024-03-07T01:41:07;23.97;;;15.83;;
54929;SDS011;40833;53.238;6.576;2024-03-07T01:43:33;24.17;;;15.90;;
54929;SDS011;40833;53.238;6.576;2024-03-07T01:45:59;23.13;;;15.03;;
54929;SDS011;40833;53.238;6.576;2024-03-07T01:48:26;23.13;;;15.10;;
54929;SDS011;40833;53.238;6.576;2024-03-07T01:50:56;21.67;;;14.67;;
54929;SDS011;40833;53.238;6.576;2024-03-07T01:53:25;25.53;;;16.13;;
54929;SDS011;40833;53.238;6.576;2024-03-07T01:55:53;24.13;;;14.93;;
54929;SDS011;40833;53.238;6.576;2024-03-07T01:58:19;22.90;;;16.10;;
54929;SDS011;40833;53.238;6.576;2024-03-07T02:00:46;25.73;;;16.13;;
54929;SDS011;40833;53.238;6.576;2024-03-07T02:03:12;21.50;;;15.07;;
54929;SDS011;40833;53.238;6.576;2024-03-07T02:05:41;22.87;;;16.03;;
54929;SDS011;40833;53.238;6.576;2024-03-07T02:08:07;26.80;;;15.57;;
54929;SDS011;40833;53.238;6.576;2024-03-07T02:10:32;24.03;;;15.93;;
54929;SDS011;40833;53.238;6.576;2024-03-07T02:12:58;23.93;;;15.70;;
54929;SDS011;40833;53.238;6.576;2024-03-07T02:15:26;24.83;;;15.67;;
54929;SDS011;40833;53.238;6.576;2024-03-07T02:17:52;28.43;;;16.83;;
54929;SDS011;40833;53.238;6.576;2024-03-07T02:20:18;21.57;;;15.27;;
54929;SDS011;40833;53.238;6.576;2024-03-07T02:22:44;22.07;;;16.00;;
54929;SDS011;40833;53.238;6.576;2024-03-07T02:25:10;24.07;;;15.23;;
54929;SDS011;40833;53.238;6.576;2024-03-07T02:27:36;23.90;;;14.60;;
54929;SDS011;40833;53.238;6.576;2024-03-07T02:30:02;21.50;;;15.47;;
54929;SDS011;40833;53.238;6.576;2024-03-07T02:32:28;22.73;;;16.00;;
54929;SDS011;40833;53.238;6.576;2024-03-07T02:34:54;21.83;;;15.00;;
54929;SDS011;40833;53.238;6.576;2024-03-07T02:37:20;23.30;;;15.93;;
54929;SDS011;40833;53.238;6.576;2024-03-07T02:39:46;25.17;;;15.60;;
54929;SDS011;40833;53.238;6.576;2024-03-07T02:42:11;23.53;;;15.20;;
54929;SDS011;40833;53.238;6.576;2024-03-07T02:44:37;28.63;;;15.90;;
54929;SDS011;40833;53.238;6.576;2024-03-07T02:47:06;22.50;;;15.63;;
54929;SDS011;40833;53.238;6.576;2024-03-07T02:49:32;21.30;;;15.80;;
54929;SDS011;40833;53.238;6.576;2024-03-07T02:51:58;24.83;;;16.97;;
54929;SDS011;40833;53.238;6.576;2024-03-07T02:54:24;23.43;;;15.83;;
54929;SDS011;40833;53.238;6.576;2024-03-07T02:56:49;24.33;;;16.10;;
54929;SDS011;40833;53.238;6.576;2024-03-07T02:59:15;22.67;;;15.27;;
54929;SDS011;40833;53.238;6.576;2024-03-07T03:01:41;23.83;;;15.90;;
54929;SDS011;40833;53.238;6.576;2024-03-07T03:04:07;25.53;;;15.67;;
54929;SDS011;40833;53.238;6.576;2024-03-07T03:06:33;29.20;;;15.63;;
54929;SDS011;40833;53.238;6.576;2024-03-07T03:08:59;25.73;;;16.93;;
54929;SDS011;40833;53.238;6.576;2024-03-07T03:11:25;24.50;;;15.93;;
54929;SDS011;40833;53.238;6.576;2024-03-07T03:13:53;23.30;;;15.93;;
54929;SDS011;40833;53.238;6.576;2024-03-07T03:16:19;23.33;;;16.57;;
54929;SDS011;40833;53.238;6.576;2024-03-07T03:18:44;25.17;;;16.40;;
54929;SDS011;40833;53.238;6.576;2024-03-07T03:21:10;22.37;;;15.77;;
54929;SDS011;40833;53.238;6.576;2024-03-07T03:23:36;24.33;;;16.23;;
54929;SDS011;40833;53.238;6.576;2024-03-07T03:26:02;22.20;;;15.70;;
54929;SDS011;40833;53.238;6.576;2024-03-07T03:28:28;23.03;;;15.97;;
54929;SDS011;40833;53.238;6.576;2024-03-07T03:30:54;26.67;;;16.27;;
54929;SDS011;40833;53.238;6.576;2024-03-07T03:33:20;21.40;;;14.97;;
54929;SDS011;40833;53.238;6.576;2024-03-07T03:35:46;25.87;;;16.97;;
54929;SDS011;40833;53.238;6.576;2024-03-07T03:38:12;25.50;;;16.37;;
54929;SDS011;40833;53.238;6.576;2024-03-07T03:40:38;25.43;;;15.37;;
54929;SDS011;40833;53.238;6.576;2024-03-07T03:43:04;25.03;;;17.10;;
54929;SDS011;40833;53.238;6.576;2024-03-07T03:45:30;24.50;;;16.73;;
54929;SDS011;40833;53.238;6.576;2024-03-07T03:47:59;22.73;;;15.63;;
54929;SDS011;40833;53.238;6.576;2024-03-07T03:50:24;25.67;;;16.43;;
54929;SDS011;40833;53.238;6.576;2024-03-07T03:52:50;24.43;;;16.97;;
54929;SDS011;40833;53.238;6.576;2024-03-07T03:55:16;24.87;;;17.13;;
54929;SDS011;40833;53.238;6.576;2024-03-07T03:57:43;23.53;;;16.37;;
54929;SDS011;40833;53.238;6.576;2024-03-07T04:00:10;25.07;;;16.20;;
54929;SDS011;40833;53.238;6.576;2024-03-07T04:02:43;26.57;;;16.83;;
54929;SDS011;40833;53.238;6.576;2024-03-07T04:05:13;25.77;;;17.20;;
54929;SDS011;40833;53.238;6.576;2024-03-07T04:07:41;28.97;;;16.60;;
54929;SDS011;40833;53.238;6.576;2024-03-07T04:10:07;25.13;;;16.60;;
54929;SDS011;40833;53.238;6.576;2024-03-07T04:12:37;23.90;;;16.00;;
54929;SDS011;40833;53.238;6.576;2024-03-07T04:15:05;29.60;;;17.33;;
54929;SDS011;40833;53.238;6.576;2024-03-07T04:17:40;23.33;;;15.37;;
54929;SDS011;40833;53.238;6.576;2024-03-07T04:20:06;24.83;;;16.30;;
54929;SDS011;40833;53.238;6.576;2024-03-07T04:22:35;24.80;;;16.77;;
54929;SDS011;40833;53.238;6.576;2024-03-07T04:25:04;27.33;;;17.50;;
54929;SDS011;40833;53.238;6.576;2024-03-07T04:27:31;25.27;;;16.93;;
54929;SDS011;40833;53.238;6.576;2024-03-07T04:30:05;26.47;;;16.37;;
54929;SDS011;40833;53.238;6.576;2024-03-07T04:32:41;25.47;;;17.20;;
54929;SDS011;40833;53.238;6.576;2024-03-07T04:35:07;26.53;;;18.03;;
54929;SDS011;40833;53.238;6.576;2024-03-07T04:37:33;28.07;;;18.13;;
54929;SDS011;40833;53.238;6.576;2024-03-07T04:40:05;29.43;;;18.77;;
54929;SDS011;40833;53.238;6.576;2024-03-07T04:42:42;28.67;;;18.97;;
54929;SDS011;40833;53.238;6.576;2024-03-07T04:45:09;33.43;;;18.83;;
54929;SDS011;40833;53.238;6.576;2024-03-07T04:47:38;34.83;;;19.23;;
54929;SDS011;40833;53.238;6.576;2024-03-07T04:50:07;29.47;;;19.17;;
54929;SDS011;40833;53.238;6.576;2024-03-07T04:52:36;30.07;;;19.70;;
54929;SDS011;40833;53.238;6.576;2024-03-07T04:55:03;30.23;;;18.50;;
54929;SDS011;40833;53.238;6.576;2024-03-07T04:57:30;31.73;;;20.43;;
54929;SDS011;40833;53.238;6.576;2024-03-07T04:59:56;32.10;;;19.43;;
54929;SDS011;40833;53.238;6.576;2024-03-07T05:02:21;31.70;;;19.70;;
54929;SDS011;40833;53.238;6.576;2024-03-07T05:04:48;29.93;;;19.13;;
54929;SDS011;40833;53.238;6.576;2024-03-07T05:07:15;31.00;;;19.93;;
54929;SDS011;40833;53.238;6.576;2024-03-07T05:09:41;31.57;;;20.47;;
54929;SDS011;40833;53.238;6.576;2024-03-07T05:12:07;33.70;;;22.07;;
54929;SDS011;40833;53.238;6.576;2024-03-07T05:14:34;34.63;;;22.27;;
54929;SDS011;40833;53.238;6.576;2024-03-07T05:16:59;35.70;;;22.23;;
54929;SDS011;40833;53.238;6.576;2024-03-07T05:19:33;48.27;;;21.77;;
54929;SDS011;40833;53.238;6.576;2024-03-07T05:22:00;35.07;;;21.17;;
54929;SDS011;40833;53.238;6.576;2024-03-07T05:24:26;38.97;;;22.60;;
54929;SDS011;40833;53.238;6.576;2024-03-07T05:26:52;37.60;;;21.77;;
54929;SDS011;40833;53.238;6.576;2024-03-07T05:29:19;35.10;;;22.87;;
54929;SDS011;40833;53.238;6.576;2024-03-07T05:31:45;35.77;;;22.13;;
54929;SDS011;40833;53.238;6.576;2024-03-07T05:34:14;41.43;;;22.50;;
54929;SDS011;40833;53.238;6.576;2024-03-07T05:36:41;35.97;;;22.17;;
54929;SDS011;40833;53.238;6.576;2024-03-07T05:39:13;47.30;;;24.53;;
54929;SDS011;40833;53.238;6.576;2024-03-07T05:41:40;39.47;;;24.50;;
54929;SDS011;40833;53.238;6.576;2024-03-07T05:44:07;43.50;;;26.43;;
54929;SDS011;40833;53.238;6.576;2024-03-07T05:46:40;46.37;;;26.30;;
54929;SDS011;40833;53.238;6.576;2024-03-07T05:49:10;47.13;;;27.40;;
54929;SDS011;40833;53.238;6.576;2024-03-07T05:51:35;48.57;;;27.53;;
54929;SDS011;40833;53.238;6.576;2024-03-07T05:54:01;52.47;;;29.70;;
54929;SDS011;40833;53.238;6.576;2024-03-07T05:56:34;55.57;;;31.67;;
54929;SDS011;40833;53.238;6.576;2024-03-07T05:59:03;50.53;;;29.20;;
54929;SDS011;40833;53.238;6.576;2024-03-07T06:01:30;57.27;;;31.13;;
54929;SDS011;40833;53.238;6.576;2024-03-07T06:03:58;59.10;;;30.97;;
54929;SDS011;40833;53.238;6.576;2024-03-07T06:06:25;60.50;;;31.50;;
54929;SDS011;40833;53.238;6.576;2024-03-07T06:08:50;63.03;;;32.80;;
54929;SDS011;40833;53.238;6.576;2024-03-07T06:11:16;65.83;;;33.70;;
54929;SDS011;40833;53.238;6.576;2024-03-07T06:13:46;63.17;;;33.77;;
54929;SDS011;40833;53.238;6.576;2024-03-07T06:16:13;70.57;;;35.37;;
54929;SDS011;40833;53.238;6.576;2024-03-07T06:18:40;68.37;;;35.60;;
54929;SDS011;40833;53.238;6.576;2024-03-07T06:21:06;77.97;;;38.07;;
54929;SDS011;40833;53.238;6.576;2024-03-07T06:23:33;81.87;;;39.27;;
54929;SDS011;40833;53.238;6.576;2024-03-07T06:25:59;112.27;;;42.00;;
54929;SDS011;40833;53.238;6.576;2024-03-07T06:28:26;126.63;;;42.47;;
54929;SDS011;40833;53.238;6.576;2024-03-07T06:30:55;154.00;;;43.23;;
54929;SDS011;40833;53.238;6.576;2024-03-07T06:33:21;352.53;;;48.23;;
54929;SDS011;40833;53.238;6.576;2024-03-07T06:35:47;320.03;;;50.50;;
54929;SDS011;40833;53.238;6.576;2024-03-07T06:38:13;230.23;;;48.30;;
54929;SDS011;40833;53.238;6.576;2024-03-07T06:40:39;233.73;;;50.17;;
54929;SDS011;40833;53.238;6.576;2024-03-07T06:43:07;174.77;;;47.50;;
54929;SDS011;40833;53.238;6.576;2024-03-07T06:45:38;213.40;;;48.03;;
54929;SDS011;40833;53.238;6.576;2024-03-07T06:48:06;203.20;;;51.40;;
54929;SDS011;40833;53.238;6.576;2024-03-07T06:50:33;177.77;;;48.63;;
54929;SDS011;40833;53.238;6.576;2024-03-07T06:53:00;213.47;;;52.50;;
54929;SDS011;40833;53.238;6.576;2024-03-07T06:55:26;235.70;;;52.37;;
54929;SDS011;40833;53.238;6.576;2024-03-07T06:57:52;166.03;;;46.57;;
54929;SDS011;40833;53.238;6.576;2024-03-07T07:00:19;126.37;;;46.80;;
54929;SDS011;40833;53.238;6.576;2024-03-07T07:02:45;126.17;;;47.30;;
54929;SDS011;40833;53.238;6.576;2024-03-07T07:05:11;181.03;;;47.73;;
54929;SDS011;40833;53.238;6.576;2024-03-07T07:07:49;130.80;;;44.10;;
54929;SDS011;40833;53.238;6.576;2024-03-07T07:10:16;145.83;;;44.50;;
54929;SDS011;40833;53.238;6.576;2024-03-07T07:12:45;145.67;;;42.93;;
54929;SDS011;40833;53.238;6.576;2024-03-07T07:15:13;119.77;;;41.93;;
54929;SDS011;40833;53.238;6.576;2024-03-07T07:17:46;131.23;;;44.53;;
54929;SDS011;40833;53.238;6.576;2024-03-07T07:20:14;160.97;;;46.47;;
54929;SDS011;40833;53.238;6.576;2024-03-07T07:22:41;121.10;;;43.17;;
54929;SDS011;40833;53.238;6.576;2024-03-07T07:25:07;122.70;;;43.00;;
54929;SDS011;40833;53.238;6.576;2024-03-07T07:27:42;115.77;;;43.03;;
54929;SDS011;40833;53.238;6.576;2024-03-07T07:30:10;121.43;;;44.10;;
54929;SDS011;40833;53.238;6.576;2024-03-07T07:32:37;163.13;;;44.10;;
54929;SDS011;40833;53.238;6.576;2024-03-07T07:35:03;176.23;;;44.23;;
54929;SDS011;40833;53.238;6.576;2024-03-07T07:37:35;118.27;;;40.87;;
54929;SDS011;40833;53.238;6.576;2024-03-07T07:40:02;194.83;;;44.33;;
54929;SDS011;40833;53.238;6.576;2024-03-07T07:42:29;141.33;;;40.73;;
54929;SDS011;40833;53.238;6.576;2024-03-07T07:44:54;138.60;;;41.97;;
54929;SDS011;40833;53.238;6.576;2024-03-07T07:47:20;170.53;;;42.93;;
54929;SDS011;40833;53.238;6.576;2024-03-07T07:49:46;123.40;;;40.77;;
54929;SDS011;40833;53.238;6.576;2024-03-07T07:52:11;126.60;;;39.60;;
54929;SDS011;40833;53.238;6.576;2024-03-07T07:54:40;143.13;;;42.30;;
54929;SDS011;40833;53.238;6.576;2024-03-07T07:57:07;129.87;;;43.30;;
54929;SDS011;40833;53.238;6.576;2024-03-07T07:59:33;143.00;;;47.10;;
54929;SDS011;40833;53.238;6.576;2024-03-07T08:01:59;150.63;;;51.97;;
54929;SDS011;40833;53.238;6.576;2024-03-07T08:04:25;164.07;;;51.50;;
54929;SDS011;40833;53.238;6.576;2024-03-07T08:06:50;142.73;;;44.20;;
54929;SDS011;40833;53.238;6.576;2024-03-07T08:09:16;145.23;;;43.43;;
54929;SDS011;40833;53.238;6.576;2024-03-07T08:11:42;128.13;;;42.03;;
54929;SDS011;40833;53.238;6.576;2024-03-07T08:14:08;134.23;;;39.60;;
54929;SDS011;40833;53.238;6.576;2024-03-07T08:16:34;116.10;;;42.33;;
54929;SDS011;40833;53.238;6.576;2024-03-07T08:19:00;121.23;;;41.63;;
54929;SDS011;40833;53.238;6.576;2024-03-07T08:21:28;119.67;;;39.77;;
54929;SDS011;40833;53.238;6.576;2024-03-07T08:23:54;101.47;;;35.20;;
54929;SDS011;40833;53.238;6.576;2024-03-07T08:26:20;96.60;;;37.43;;
54929;SDS011;40833;53.238;6.576;2024-03-07T08:28:46;72.50;;;35.17;;
54929;SDS011;40833;53.238;6.576;2024-03-07T08:31:12;88.57;;;35.57;;
54929;SDS011;40833;53.238;6.576;2024-03-07T08:33:37;81.47;;;34.80;;
54929;SDS011;40833;53.238;6.576;2024-03-07T08:36:03;88.10;;;36.13;;
54929;SDS011;40833;53.238;6.576;2024-03-07T08:38:29;85.23;;;34.93;;
54929;SDS011;40833;53.238;6.576;2024-03-07T08:40:57;90.27;;;36.73;;
54929;SDS011;40833;53.238;6.576;2024-03-07T08:43:23;84.93;;;36.47;;
54929;SDS011;40833;53.238;6.576;2024-03-07T08:45:48;77.13;;;34.83;;
54929;SDS011;40833;53.238;6.576;2024-03-07T08:48:14;69.17;;;32.83;;
54929;SDS011;40833;53.238;6.576;2024-03-07T08:50:40;76.40;;;38.30;;
54929;SDS011;40833;53.238;6.576;2024-03-07T08:53:06;69.27;;;31.77;;
54929;SDS011;40833;53.238;6.576;2024-03-07T08:55:32;67.70;;;31.57;;
54929;SDS011;40833;53.238;6.576;2024-03-07T08:58:00;69.00;;;31.57;;
54929;SDS011;40833;53.238;6.576;2024-03-07T09:00:26;64.30;;;30.33;;
54929;SDS011;40833;53.238;6.576;2024-03-07T09:02:56;59.90;;;27.53;;
54929;SDS011;40833;53.238;6.576;2024-03-07T09:05:23;64.47;;;28.83;;
54929;SDS011;40833;53.238;6.576;2024-03-07T09:07:50;59.13;;;29.77;;
54929;SDS011;40833;53.238;6.576;2024-03-07T09:10:16;66.23;;;31.53;;
54929;SDS011;40833;53.238;6.576;2024-03-07T09:12:43;61.70;;;30.17;;
54929;SDS011;40833;53.238;6.576;2024-03-07T09:15:09;60.40;;;28.83;;
54929;SDS011;40833;53.238;6.576;2024-03-07T09:17:36;63.07;;;30.60;;
54929;SDS011;40833;53.238;6.576;2024-03-07T09:20:03;65.07;;;31.57;;
54929;SDS011;40833;53.238;6.576;2024-03-07T09:22:30;63.93;;;30.43;;
54929;SDS011;40833;53.238;6.576;2024-03-07T09:24:57;60.60;;;29.60;;
54929;SDS011;40833;53.238;6.576;2024-03-07T09:27:24;55.23;;;27.37;;
54929;SDS011;40833;53.238;6.576;2024-03-07T09:29:49;54.33;;;27.90;;
54929;SDS011;40833;53.238;6.576;2024-03-07T09:32:15;54.47;;;26.97;;
54929;SDS011;40833;53.238;6.576;2024-03-07T09:34:42;48.60;;;26.40;;
54929;SDS011;40833;53.238;6.576;2024-03-07T09:37:07;55.77;;;28.17;;
54929;SDS011;40833;53.238;6.576;2024-03-07T09:39:34;48.63;;;26.63;;
54929;SDS011;40833;53.238;6.576;2024-03-07T09:42:03;52.03;;;26.53;;
54929;SDS011;40833;53.238;6.576;2024-03-07T09:44:34;49.80;;;25.37;;
54929;SDS011;40833;53.238;6.576;2024-03-07T09:47:04;42.83;;;23.30;;
54929;SDS011;40833;53.238;6.576;2024-03-07T09:49:30;46.00;;;26.07;;
54929;SDS011;40833;53.238;6.576;2024-03-07T09:52:01;52.20;;;25.73;;
54929;SDS011;40833;53.238;6.576;2024-03-07T09:56:59;47.47;;;25.17;;
54929;SDS011;40833;53.238;6.576;2024-03-07T09:59:28;42.27;;;22.30;;
54929;SDS011;40833;53.238;6.576;2024-03-07T10:01:57;43.60;;;23.70;;
54929;SDS011;40833;53.238;6.576;2024-03-07T10:04:38;49.40;;;23.83;;
54929;SDS011;40833;53.238;6.576;2024-03-07T10:07:10;41.33;;;23.30;;
54929;SDS011;40833;53.238;6.576;2024-03-07T10:09:39;42.67;;;22.67;;
54929;SDS011;40833;53.238;6.576;2024-03-07T10:12:05;41.63;;;23.67;;
54929;SDS011;40833;53.238;6.576;2024-03-07T10:14:34;43.60;;;23.43;;
54929;SDS011;40833;53.238;6.576;2024-03-07T10:17:02;46.03;;;23.93;;
54929;SDS011;40833;53.238;6.576;2024-03-07T10:19:28;40.80;;;22.17;;
54929;SDS011;40833;53.238;6.576;2024-03-07T10:21:55;40.57;;;22.83;;
54929;SDS011;40833;53.238;6.576;2024-03-07T10:24:26;40.70;;;21.90;;
54929;SDS011;40833;53.238;6.576;2024-03-07T10:26:53;43.60;;;24.07;;
54929;SDS011;40833;53.238;6.576;2024-03-07T10:29:23;42.40;;;23.80;;
54929;SDS011;40833;53.238;6.576;2024-03-07T10:31:50;39.37;;;22.63;;
54929;SDS011;40833;53.238;6.576;2024-03-07T10:34:16;38.97;;;23.03;;
54929;SDS011;40833;53.238;6.576;2024-03-07T10:36:42;42.87;;;22.40;;
54929;SDS011;40833;53.238;6.576;2024-03-07T10:39:08;42.13;;;23.33;;
54929;SDS011;40833;53.238;6.576;2024-03-07T10:41:47;39.93;;;22.87;;
54929;SDS011;40833;53.238;6.576;2024-03-07T10:46:52;43.87;;;24.13;;
54929;SDS011;40833;53.238;6.576;2024-03-07T10:49:19;40.03;;;23.37;;
54929;SDS011;40833;53.238;6.576;2024-03-07T10:51:58;41.33;;;23.03;;
54929;SDS011;40833;53.238;6.576;2024-03-07T10:57:20;39.67;;;23.53;;
54929;SDS011;40833;53.238;6.576;2024-03-07T10:59:58;40.33;;;22.80;;
54929;SDS011;40833;53.238;6.576;2024-03-07T11:02:43;44.40;;;24.00;;
54929;SDS011;40833;53.238;6.576;2024-03-07T11:05:12;39.67;;;23.70;;
54929;SDS011;40833;53.238;6.576;2024-03-07T11:07:41;41.37;;;23.23;;
54929;SDS011;40833;53.238;6.576;2024-03-07T11:10:07;37.43;;;22.93;;
54929;SDS011;40833;53.238;6.576;2024-03-07T11:12:37;42.07;;;23.33;;
54929;SDS011;40833;53.238;6.576;2024-03-07T11:15:06;36.77;;;21.90;;
54929;SDS011;40833;53.238;6.576;2024-03-07T11:17:43;42.57;;;22.57;;
54929;SDS011;40833;53.238;6.576;2024-03-07T11:20:24;40.53;;;23.80;;
54929;SDS011;40833;53.238;6.576;2024-03-07T11:22:51;41.47;;;21.77;;
54929;SDS011;40833;53.238;6.576;2024-03-07T11:25:20;43.33;;;23.13;;
54929;SDS011;40833;53.238;6.576;2024-03-07T11:27:56;37.67;;;22.57;;
54929;SDS011;40833;53.238;6.576;2024-03-07T11:30:23;45.60;;;23.30;;
54929;SDS011;40833;53.238;6.576;2024-03-07T11:32:50;35.80;;;20.77;;
54929;SDS011;40833;53.238;6.576;2024-03-07T11:35:32;40.90;;;22.70;;
54929;SDS011;40833;53.238;6.576;2024-03-07T11:38:02;46.20;;;24.60;;
54929;SDS011;40833;53.238;6.576;2024-03-07T11:43:02;45.93;;;24.80;;
54929;SDS011;40833;53.238;6.576;2024-03-07T11:45:32;39.33;;;23.13;;
54929;SDS011;40833;53.238;6.576;2024-03-07T11:48:04;40.77;;;22.23;;
54929;SDS011;40833;53.238;6.576;2024-03-07T11:50:34;44.40;;;24.37;;
54929;SDS011;40833;53.238;6.576;2024-03-07T11:53:02;37.63;;;23.40;;
54929;SDS011;40833;53.238;6.576;2024-03-07T11:55:35;36.93;;;21.40;;
54929;SDS011;40833;53.238;6.576;2024-03-07T11:58:11;40.90;;;23.17;;
54929;SDS011;40833;53.238;6.576;2024-03-07T12:00:42;34.93;;;20.53;;
54929;SDS011;40833;53.238;6.576;2024-03-07T12:03:15;34.53;;;19.87;;
54929;SDS011;40833;53.238;6.576;2024-03-07T12:05:48;33.80;;;20.27;;
54929;SDS011;40833;53.238;6.576;2024-03-07T12:08:16;39.53;;;20.83;;
54929;SDS011;40833;53.238;6.576;2024-03-07T12:10:43;33.87;;;19.07;;
54929;SDS011;40833;53.238;6.576;2024-03-07T12:13:13;32.20;;;19.87;;
54929;SDS011;40833;53.238;6.576;2024-03-07T12:15:44;33.40;;;19.70;;
54929;SDS011;40833;53.238;6.576;2024-03-07T12:18:10;31.97;;;19.60;;
54929;SDS011;40833;53.238;6.576;2024-03-07T12:20:40;31.90;;;18.63;;
54929;SDS011;40833;53.238;6.576;2024-03-07T12:23:07;31.23;;;18.37;;
54929;SDS011;40833;53.238;6.576;2024-03-07T12:25:37;31.67;;;18.43;;
54929;SDS011;40833;53.238;6.576;2024-03-07T12:28:08;30.20;;;18.77;;
54929;SDS011;40833;53.238;6.576;2024-03-07T12:30:52;29.67;;;18.27;;
54929;SDS011;40833;53.238;6.576;2024-03-07T12:33:19;29.37;;;18.27;;
54929;SDS011;40833;53.238;6.576;2024-03-07T12:35:46;26.37;;;17.43;;
54929;SDS011;40833;53.238;6.576;2024-03-07T12:38:15;26.97;;;17.80;;
54929;SDS011;40833;53.238;6.576;2024-03-07T12:40:45;31.87;;;18.23;;
54929;SDS011;40833;53.238;6.576;2024-03-07T12:43:19;29.97;;;18.23;;
54929;SDS011;40833;53.238;6.576;2024-03-07T12:45:52;32.17;;;19.27;;
54929;SDS011;40833;53.238;6.576;2024-03-07T12:48:23;31.80;;;19.77;;
54929;SDS011;40833;53.238;6.576;2024-03-07T12:50:49;27.47;;;17.97;;
54929;SDS011;40833;53.238;6.576;2024-03-07T12:53:22;29.63;;;18.53;;
54929;SDS011;40833;53.238;6.576;2024-03-07T12:55:50;29.67;;;18.42;;
54929;SDS011;40833;53.238;6.576;2024-03-07T12:58:19;32.63;;;18.53;;
54929;SDS011;40833;53.238;6.576;2024-03-07T13:00:47;29.50;;;17.00;;
54929;SDS011;40833;53.238;6.576;2024-03-07T13:03:13;25.10;;;16.33;;
54929;SDS011;40833;53.238;6.576;2024-03-07T13:05:41;28.23;;;15.63;;
54929;SDS011;40833;53.238;6.576;2024-03-07T13:08:08;23.23;;;15.43;;
54929;SDS011;40833;53.238;6.576;2024-03-07T13:10:44;25.10;;;16.53;;
54929;SDS011;40833;53.238;6.576;2024-03-07T13:13:10;26.10;;;17.33;;
54929;SDS011;40833;53.238;6.576;2024-03-07T13:15:39;28.87;;;19.00;;
54929;SDS011;40833;53.238;6.576;2024-03-07T13:18:07;27.23;;;17.30;;
54929;SDS011;40833;53.238;6.576;2024-03-07T13:20:34;25.53;;;15.53;;
54929;SDS011;40833;53.238;6.576;2024-03-07T13:23:01;26.83;;;16.10;;
54929;SDS011;40833;53.238;6.576;2024-03-07T13:25:28;24.47;;;15.77;;
54929;SDS011;40833;53.238;6.576;2024-03-07T13:28:02;26.60;;;15.10;;
54929;SDS011;40833;53.238;6.576;2024-03-07T13:30:38;24.30;;;14.70;;
54929;SDS011;40833;53.238;6.576;2024-03-07T13:33:08;24.27;;;15.27;;
54929;SDS011;40833;53.238;6.576;2024-03-07T13:35:38;24.43;;;15.23;;
54929;SDS011;40833;53.238;6.576;2024-03-07T13:38:05;28.60;;;15.73;;
54929;SDS011;40833;53.238;6.576;2024-03-07T13:40:31;22.10;;;14.93;;
54929;SDS011;40833;53.238;6.576;2024-03-07T13:43:00;25.97;;;15.17;;
54929;SDS011;40833;53.238;6.576;2024-03-07T13:45:27;25.80;;;16.67;;
54929;SDS011;40833;53.238;6.576;2024-03-07T13:47:54;25.27;;;16.57;;
54929;SDS011;40833;53.238;6.576;2024-03-07T13:50:21;25.27;;;16.00;;
54929;SDS011;40833;53.238;6.576;2024-03-07T13:52:49;25.07;;;15.40;;
54929;SDS011;40833;53.238;6.576;2024-03-07T14:20:50;29.93;;;17.87;;
54929;SDS011;40833;53.238;6.576;2024-03-07T14:29:54;23.63;;;14.97;;
54929;SDS011;40833;53.238;6.576;2024-03-07T14:32:54;31.40;;;14.52;;
54929;SDS011;40833;53.238;6.576;2024-03-07T14:36:10;29.17;;;15.07;;
54929;SDS011;40833;53.238;6.576;2024-03-07T14:41:23;28.50;;;17.40;;
54929;SDS011;40833;53.238;6.576;2024-03-07T14:44:06;28.30;;;17.60;;
54929;SDS011;40833;53.238;6.576;2024-03-07T14:46:32;29.10;;;16.77;;
54929;SDS011;40833;53.238;6.576;2024-03-07T14:49:00;27.33;;;17.73;;
54929;SDS011;40833;53.238;6.576;2024-03-07T14:51:25;28.97;;;17.37;;
54929;SDS011;40833;53.238;6.576;2024-03-07T14:53:51;28.67;;;17.23;;
54929;SDS011;40833;53.238;6.576;2024-03-07T14:56:17;24.67;;;16.83;;
54929;SDS011;40833;53.238;6.576;2024-03-07T14:58:45;26.87;;;15.93;;
54929;SDS011;40833;53.238;6.576;2024-03-07T15:01:11;24.83;;;16.50;;
54929;SDS011;40833;53.238;6.576;2024-03-07T15:03:38;30.27;;;16.63;;
54929;SDS011;40833;53.238;6.576;2024-03-07T15:06:06;26.83;;;14.63;;
54929;SDS011;40833;53.238;6.576;2024-03-07T15:08:34;23.70;;;16.03;;
54929;SDS011;40833;53.238;6.576;2024-03-07T15:13:38;24.67;;;15.90;;